createdAt,value
2022-12-01T00:01:19.388Z,93.10
2022-12-01T00:04:07.338Z,86.50
2022-12-01T00:06:54.332Z,85.20
2022-12-01T00:10:00.080Z,82.17
2022-12-01T00:12:47.015Z,89.07
2022-12-01T00:15:36.181Z,79.40
2022-12-01T00:18:23.448Z,78.00
2022-12-01T00:21:15.509Z,86.47
2022-12-01T00:24:02.428Z,86.83
2022-12-01T00:26:50.171Z,78.47
2022-12-01T00:29:37.771Z,81.17
2022-12-01T00:32:25.199Z,87.03
2022-12-01T00:35:14.205Z,87.67
2022-12-01T00:38:01.997Z,82.83
2022-12-01T00:40:48.896Z,81.13
2022-12-01T00:43:35.897Z,83.60
2022-12-01T00:46:23.174Z,87.93
2022-12-01T00:49:13.727Z,95.57
2022-12-01T00:52:01.533Z,87.37
2022-12-01T00:54:48.549Z,91.87
2022-12-01T00:57:35.549Z,86.27
2022-12-01T01:00:22.554Z,89.33
2022-12-01T01:03:10.203Z,98.93
2022-12-01T01:05:57.987Z,93.10
2022-12-01T01:08:44.917Z,95.83
2022-12-01T01:11:32.042Z,103.20
2022-12-01T01:14:19.300Z,96.77
2022-12-01T01:17:06.410Z,92.93
2022-12-01T01:19:53.674Z,92.50
2022-12-01T01:22:40.610Z,97.97
2022-12-01T01:25:27.764Z,93.07
2022-12-01T01:28:14.718Z,96.87
2022-12-01T01:31:06.598Z,99.57
2022-12-01T01:33:55.579Z,100.13
2022-12-01T01:36:42.503Z,101.60
2022-12-01T01:39:29.913Z,100.57
2022-12-01T01:42:19.800Z,97.80
2022-12-01T01:45:22.615Z,99.33
2022-12-01T01:48:12.991Z,97.47
2022-12-01T01:51:00.796Z,98.53
2022-12-01T01:53:49.152Z,109.57
2022-12-01T01:56:37.507Z,98.80
2022-12-01T01:59:29.372Z,107.77
2022-12-01T02:02:16.352Z,98.17
2022-12-01T02:05:03.531Z,101.53
2022-12-01T02:07:52.183Z,96.30
2022-12-01T02:10:45.353Z,95.87
2022-12-01T02:14:03.328Z,99.20
2022-12-01T02:17:10.343Z,95.17
2022-12-01T02:20:28.504Z,90.17
2022-12-01T02:23:36.285Z,88.87
2022-12-01T02:26:25.941Z,84.80
2022-12-01T02:29:34.098Z,99.43
2022-12-01T02:32:39.296Z,108.17
2022-12-01T02:35:33.598Z,99.30
2022-12-01T02:38:51.697Z,98.20
2022-12-01T02:41:52.014Z,95.13
2022-12-01T02:44:44.435Z,110.47
2022-12-01T02:47:33.262Z,101.00
2022-12-01T02:50:21.986Z,98.87
2022-12-01T02:53:11.540Z,100.10
2022-12-01T02:55:58.921Z,95.13
2022-12-01T02:58:45.875Z,105.77
2022-12-01T03:01:52.454Z,97.47
2022-12-01T03:05:09.078Z,100.73
2022-12-01T03:08:19.439Z,89.97
2022-12-01T03:11:06.558Z,97.93
2022-12-01T03:14:19.057Z,97.53
2022-12-01T03:17:12.258Z,95.80
2022-12-01T03:20:22.370Z,98.53
2022-12-01T03:23:15.698Z,104.57
2022-12-01T03:26:09.350Z,98.57
2022-12-01T03:29:02.489Z,100.50
2022-12-01T03:31:54.355Z,103.00
2022-12-01T03:34:43.775Z,96.57
2022-12-01T03:37:40.204Z,88.67
2022-12-01T03:40:30.095Z,101.93
2022-12-01T03:43:26.359Z,94.97
2022-12-01T03:46:23.272Z,92.57
2022-12-01T03:49:10.779Z,99.27
2022-12-01T03:52:35.957Z,95.73
2022-12-01T03:55:26.460Z,107.83
2022-12-01T03:58:23.399Z,92.90
2022-12-01T04:01:11.843Z,88.80
2022-12-01T04:04:07.207Z,102.87
2022-12-01T04:06:54.226Z,100.53
2022-12-01T04:09:41.888Z,101.23
2022-12-01T04:12:33.062Z,98.40
2022-12-01T04:15:20.015Z,106.87
2022-12-01T04:18:06.929Z,102.97
2022-12-01T04:20:54.807Z,101.47
2022-12-01T04:23:59.983Z,104.43
2022-12-01T04:26:47.022Z,102.20
2022-12-01T04:29:34.012Z,95.90
2022-12-01T04:32:21.111Z,93.03
2022-12-01T04:35:10.327Z,93.83
2022-12-01T04:37:57.307Z,100.30
2022-12-01T04:40:44.237Z,98.47
2022-12-01T04:43:31.148Z,108.70
2022-12-01T04:46:18.122Z,92.87
2022-12-01T04:49:05.914Z,92.93
2022-12-01T04:51:52.898Z,85.63
2022-12-01T04:54:39.845Z,91.83
2022-12-01T04:57:26.792Z,95.13
2022-12-01T05:00:14.550Z,88.20
2022-12-01T05:03:01.847Z,96.60
2022-12-01T05:05:48.796Z,91.07
2022-12-01T05:08:35.764Z,93.30
2022-12-01T05:11:24.009Z,92.80
2022-12-01T05:14:10.934Z,97.77
2022-12-01T05:16:58.220Z,97.10
2022-12-01T05:20:03.916Z,97.70
2022-12-01T05:23:07.576Z,99.00
2022-12-01T05:25:57.796Z,97.70
2022-12-01T05:28:44.766Z,86.30
2022-12-01T05:31:32.309Z,92.07
2022-12-01T05:34:19.308Z,94.57
2022-12-01T05:37:06.231Z,87.87
2022-12-01T05:39:53.247Z,93.27
2022-12-01T05:42:40.270Z,91.47
2022-12-01T05:45:27.604Z,95.93
2022-12-01T05:48:15.254Z,87.70
2022-12-01T05:51:14.367Z,92.90
2022-12-01T05:54:01.836Z,91.30
2022-12-01T05:56:48.783Z,89.07
2022-12-01T05:59:35.729Z,89.93
2022-12-01T06:02:22.798Z,93.53
2022-12-01T06:05:09.811Z,86.33
2022-12-01T06:07:56.771Z,90.53
2022-12-01T06:10:44.564Z,82.13
2022-12-01T06:13:31.507Z,86.17
2022-12-01T06:16:18.466Z,87.87
2022-12-01T06:19:05.389Z,92.63
2022-12-01T06:21:52.409Z,86.50
2022-12-01T06:24:39.326Z,89.90
2022-12-01T06:27:26.262Z,89.07
2022-12-01T06:30:13.475Z,108.65
2022-12-01T06:33:01.017Z,92.77
2022-12-01T06:35:48.354Z,102.80
2022-12-01T06:38:37.744Z,98.57
2022-12-01T06:41:24.911Z,88.67
2022-12-01T06:44:11.915Z,98.73
2022-12-01T06:46:59.323Z,94.60
2022-12-01T06:49:46.275Z,89.30
2022-12-01T06:52:34.167Z,85.23
2022-12-01T06:55:21.435Z,97.00
2022-12-01T06:58:08.569Z,89.63
2022-12-01T07:00:57.258Z,95.80
2022-12-01T07:03:48.659Z,95.43
2022-12-01T07:06:35.590Z,89.90
2022-12-01T07:09:22.552Z,101.37
2022-12-01T07:12:09.574Z,90.27
2022-12-01T07:14:56.512Z,97.50
2022-12-01T07:17:43.405Z,101.00
2022-12-01T07:20:30.300Z,92.77
2022-12-01T07:23:17.255Z,99.00
2022-12-01T07:26:16.541Z,100.33
2022-12-01T07:29:03.528Z,96.33
2022-12-01T07:31:50.897Z,101.37
2022-12-01T07:34:38.587Z,97.07
2022-12-01T07:37:26.575Z,101.37
2022-12-01T07:40:14.593Z,94.70
2022-12-01T07:43:01.988Z,86.63
2022-12-01T07:45:49.796Z,88.27
2022-12-01T07:48:38.399Z,90.07
2022-12-01T07:51:26.347Z,80.97
2022-12-01T07:54:14.847Z,89.00
2022-12-01T07:57:01.820Z,82.43
2022-12-01T07:59:49.629Z,84.57
2022-12-01T08:02:37.485Z,84.13
2022-12-01T08:05:24.417Z,89.30
2022-12-01T08:08:12.410Z,87.53
2022-12-01T08:11:01.870Z,79.53
2022-12-01T08:13:50.539Z,84.93
2022-12-01T08:16:38.715Z,79.90
2022-12-01T08:19:27.680Z,79.40
2022-12-01T08:22:17.519Z,75.30
2022-12-01T08:25:05.771Z,78.13
2022-12-01T08:27:53.692Z,68.50
2022-12-01T08:30:40.680Z,69.37
2022-12-01T08:33:29.918Z,71.13
2022-12-01T08:36:17.862Z,64.83
2022-12-01T08:39:06.814Z,71.53
2022-12-01T08:41:54.233Z,74.30
2022-12-01T08:44:41.219Z,75.17
2022-12-01T08:47:28.957Z,69.17
2022-12-01T08:50:16.419Z,78.13
2022-12-01T08:53:04.035Z,67.17
2022-12-01T08:55:51.281Z,73.03
2022-12-01T08:58:38.530Z,73.10
2022-12-01T09:01:26.319Z,67.37
2022-12-01T09:04:13.324Z,74.90
2022-12-01T09:07:00.808Z,68.37
2022-12-01T09:09:49.090Z,75.30
2022-12-01T09:12:36.746Z,86.50
2022-12-01T09:15:23.696Z,81.90
2022-12-01T09:18:10.639Z,72.40
2022-12-01T09:20:58.619Z,76.20
2022-12-01T09:23:46.159Z,66.77
2022-12-01T09:26:34.356Z,61.30
2022-12-01T09:29:21.488Z,68.57
2022-12-01T09:32:08.480Z,53.70
2022-12-01T09:34:55.397Z,63.27
2022-12-01T09:37:42.735Z,58.53
2022-12-01T09:40:35.019Z,70.33
2022-12-01T09:43:29.378Z,66.07
2022-12-01T09:46:22.320Z,74.57
2022-12-01T09:49:18.828Z,73.83
2022-12-01T09:52:10.467Z,72.37
2022-12-01T09:55:00.328Z,80.30
2022-12-01T09:57:48.946Z,90.13
2022-12-01T10:00:42.287Z,76.77
2022-12-01T10:03:46.481Z,79.93
2022-12-01T10:06:41.049Z,65.57
2022-12-01T10:09:37.988Z,71.47
2022-12-01T10:12:29.352Z,59.30
2022-12-01T10:15:34.623Z,57.27
2022-12-01T10:18:30.740Z,59.67
2022-12-01T10:21:29.665Z,54.33
2022-12-01T10:24:28.575Z,54.77
2022-12-01T10:27:35.729Z,55.93
2022-12-01T10:30:24.223Z,61.70
2022-12-01T10:33:26.459Z,62.07
2022-12-01T10:36:14.171Z,56.70
2022-12-01T10:39:04.551Z,62.13
2022-12-01T10:41:52.175Z,70.30
2022-12-01T10:44:40.558Z,79.60
2022-12-01T10:47:28.775Z,79.00
2022-12-01T10:50:28.089Z,78.27
2022-12-01T10:53:25.379Z,75.87
2022-12-01T10:56:22.173Z,80.10
2022-12-01T10:59:30.332Z,88.43
2022-12-01T11:02:26.558Z,89.50
2022-12-01T11:05:42.363Z,76.13
2022-12-01T11:08:46.355Z,78.80
2022-12-01T11:11:40.171Z,66.10
2022-12-01T11:14:57.595Z,66.63
2022-12-01T11:17:45.799Z,69.07
2022-12-01T11:20:39.216Z,78.93
2022-12-01T11:23:29.796Z,73.23
2022-12-01T11:26:25.314Z,77.67
2022-12-01T11:29:37.274Z,65.73
2022-12-01T11:32:30.619Z,80.60
2022-12-01T11:35:21.605Z,68.57
2022-12-01T11:38:30.745Z,68.27
2022-12-01T11:41:31.611Z,61.93
2022-12-01T11:44:51.063Z,59.83
2022-12-01T11:47:29.530Z,52.73
2022-12-01T11:50:28.043Z,49.07
2022-12-01T11:53:31.291Z,64.07
2022-12-01T11:56:25.015Z,51.37
2022-12-01T11:59:18.234Z,52.23
2022-12-01T12:02:17.306Z,47.30
2022-12-01T12:05:22.127Z,47.57
2022-12-01T12:08:20.253Z,55.50
2022-12-01T12:11:12.892Z,53.93
2022-12-01T12:14:37.978Z,42.77
2022-12-01T12:17:59.326Z,41.07
2022-12-01T12:21:01.866Z,38.80
2022-12-01T12:24:05.988Z,36.87
2022-12-01T12:27:10.582Z,35.37
2022-12-01T12:30:14.951Z,38.43
2022-12-01T12:33:22.317Z,40.10
2022-12-01T12:36:42.253Z,38.77
2022-12-01T12:39:29.178Z,36.17
2022-12-01T12:42:54.870Z,34.80
2022-12-01T12:46:05.891Z,30.73
2022-12-01T12:49:19.601Z,27.10
2022-12-01T12:52:22.381Z,31.83
2022-12-01T12:55:31.867Z,32.03
2022-12-01T12:58:18.813Z,30.93
2022-12-01T13:01:20.451Z,30.37
2022-12-01T13:04:47.410Z,31.73
2022-12-01T13:07:50.039Z,29.10
2022-12-01T13:10:59.491Z,28.57
2022-12-01T13:14:00.938Z,25.50
2022-12-01T13:16:50.381Z,24.10
2022-12-01T13:19:40.435Z,26.20
2022-12-01T13:22:34.035Z,26.60
2022-12-01T13:25:37.760Z,24.20
2022-12-01T13:28:50.044Z,25.10
2022-12-01T13:32:04.329Z,24.53
2022-12-01T13:34:51.426Z,23.07
2022-12-01T13:37:39.055Z,23.03
2022-12-01T13:40:30.070Z,22.27
2022-12-01T13:43:20.075Z,25.37
2022-12-01T13:46:27.467Z,25.50
2022-12-01T13:49:47.565Z,26.70
2022-12-01T13:52:34.819Z,25.90
2022-12-01T13:55:28.304Z,23.43
2022-12-01T13:58:15.256Z,29.43
2022-12-01T14:01:20.751Z,25.93
2022-12-01T14:04:11.083Z,25.30
2022-12-01T14:07:37.370Z,32.60
2022-12-01T14:10:30.324Z,31.10
2022-12-01T14:13:21.181Z,25.83
2022-12-01T14:16:09.394Z,34.67
2022-12-01T14:18:58.480Z,34.27
2022-12-01T14:21:49.648Z,39.60
2022-12-01T14:24:41.510Z,35.67
2022-12-01T14:27:43.633Z,29.50
2022-12-01T14:30:39.697Z,35.03
2022-12-01T14:33:48.573Z,31.23
2022-12-01T14:36:46.776Z,35.60
2022-12-01T14:39:40.694Z,34.20
2022-12-01T14:42:54.996Z,36.40
2022-12-01T14:45:50.781Z,31.07
2022-12-01T14:48:41.863Z,35.87
2022-12-01T14:51:32.412Z,38.43
2022-12-01T14:54:31.316Z,36.63
2022-12-01T14:57:24.591Z,35.93
2022-12-01T15:00:20.171Z,35.07
2022-12-01T15:03:12.913Z,39.50
2022-12-01T15:06:00.038Z,39.43
2022-12-01T15:09:10.537Z,37.67
2022-12-01T15:12:07.622Z,36.23
2022-12-01T15:14:54.927Z,34.23
2022-12-01T15:17:41.927Z,35.60
2022-12-01T15:20:31.575Z,33.83
2022-12-01T15:23:18.564Z,33.50
2022-12-01T15:26:06.715Z,36.77
2022-12-01T15:29:15.801Z,40.37
2022-12-01T15:32:08.263Z,37.17
2022-12-01T15:34:57.026Z,45.17
2022-12-01T15:37:45.314Z,34.70
2022-12-01T15:43:41.784Z,35.77
2022-12-01T15:46:34.487Z,38.77
2022-12-01T15:49:32.188Z,42.47
2022-12-01T15:52:19.157Z,40.70
2022-12-01T15:55:06.804Z,43.20
2022-12-01T15:57:54.179Z,43.33
2022-12-01T16:00:41.252Z,45.60
2022-12-01T16:03:28.808Z,40.13
2022-12-01T16:06:16.408Z,41.93
2022-12-01T16:09:30.375Z,42.80
2022-12-01T16:12:23.303Z,41.77
2022-12-01T16:15:18.816Z,40.97
2022-12-01T16:18:33.218Z,46.97
2022-12-01T16:21:20.593Z,44.63
2022-12-01T16:24:14.698Z,44.67
2022-12-01T16:27:04.592Z,48.70
2022-12-01T16:30:01.790Z,52.47
2022-12-01T16:32:51.716Z,50.90
2022-12-01T16:35:38.799Z,49.03
2022-12-01T16:38:28.768Z,44.57
2022-12-01T16:41:18.232Z,44.37
2022-12-01T16:44:28.238Z,51.20
2022-12-01T16:47:24.944Z,45.30
2022-12-01T16:50:19.460Z,50.40
2022-12-01T16:53:06.454Z,56.07
2022-12-01T16:55:55.968Z,57.37
2022-12-01T16:58:44.971Z,56.97
2022-12-01T17:01:37.062Z,57.97
2022-12-01T17:04:24.555Z,51.47
2022-12-01T17:07:11.519Z,56.80
2022-12-01T17:09:58.473Z,55.40
2022-12-01T17:12:45.476Z,58.43
2022-12-01T17:15:32.564Z,50.93
2022-12-01T17:18:21.570Z,44.07
2022-12-01T17:21:11.939Z,58.13
2022-12-01T17:23:59.024Z,50.37
2022-12-01T17:26:50.977Z,58.70
2022-12-01T17:29:45.697Z,55.80
2022-12-01T17:32:33.789Z,61.43
2022-12-01T17:35:20.797Z,62.97
2022-12-01T17:38:07.793Z,61.80
2022-12-01T17:41:25.786Z,70.78
2022-12-01T17:44:12.776Z,69.70
2022-12-01T17:46:59.701Z,66.10
2022-12-01T17:49:46.954Z,63.30
2022-12-01T17:52:34.289Z,63.80
2022-12-01T17:55:21.252Z,64.00
2022-12-01T17:58:08.422Z,65.53
2022-12-01T18:00:56.097Z,67.23
2022-12-01T18:03:43.498Z,68.20
2022-12-01T18:06:30.508Z,69.57
2022-12-01T18:09:17.612Z,68.03
2022-12-01T18:12:05.302Z,60.43
2022-12-01T18:14:52.384Z,63.70
2022-12-01T18:17:41.718Z,61.53
2022-12-01T18:20:28.628Z,60.17
2022-12-01T18:23:15.567Z,59.03
2022-12-01T18:26:13.735Z,57.10
2022-12-01T18:29:06.073Z,49.23
2022-12-01T18:31:58.030Z,51.60
2022-12-01T18:34:45.012Z,55.97
2022-12-01T18:37:31.958Z,52.87
2022-12-01T18:40:19.369Z,62.00
2022-12-01T18:43:06.406Z,51.37
2022-12-01T18:45:53.342Z,56.00
2022-12-01T18:49:02.135Z,52.47
2022-12-01T18:51:49.385Z,64.13
2022-12-01T18:54:36.438Z,59.03
2022-12-01T18:57:23.563Z,63.60
2022-12-01T19:00:11.229Z,57.40
2022-12-01T19:02:58.396Z,53.80
2022-12-01T19:05:45.406Z,58.83
2022-12-01T19:08:32.821Z,59.07
2022-12-01T19:11:20.508Z,68.77
2022-12-01T19:14:10.075Z,56.87
2022-12-01T19:16:57.079Z,59.70
2022-12-01T19:19:44.013Z,54.27
2022-12-01T19:22:32.101Z,51.90
2022-12-01T19:25:19.071Z,58.30
2022-12-01T19:28:06.643Z,53.13
2022-12-01T19:30:53.599Z,57.80
2022-12-01T19:33:40.969Z,54.70
2022-12-01T19:36:28.170Z,49.63
2022-12-01T19:39:15.507Z,60.47
2022-12-01T19:42:02.713Z,60.13
2022-12-01T19:44:50.048Z,48.13
2022-12-01T19:47:37.580Z,55.93
2022-12-01T19:50:25.714Z,56.93
2022-12-01T19:53:12.724Z,55.57
2022-12-01T19:56:04.020Z,55.90
2022-12-01T19:58:51.024Z,58.97
2022-12-01T20:01:38.612Z,63.37
2022-12-01T20:04:25.817Z,57.93
2022-12-01T20:07:12.788Z,60.83
2022-12-01T20:09:59.809Z,59.57
2022-12-01T20:12:47.641Z,67.43
2022-12-01T20:15:34.647Z,58.60
2022-12-01T20:18:21.861Z,67.07
2022-12-01T20:21:18.885Z,62.40
2022-12-01T20:24:07.926Z,73.40
2022-12-01T20:26:56.862Z,65.93
2022-12-01T20:29:43.806Z,64.60
2022-12-01T20:32:30.753Z,60.23
2022-12-01T20:35:17.729Z,67.47
2022-12-01T20:38:04.666Z,64.40
2022-12-01T20:40:52.789Z,58.97
2022-12-01T20:43:40.168Z,60.30
2022-12-01T20:46:27.346Z,65.63
2022-12-01T20:49:16.250Z,62.67
2022-12-01T20:52:04.127Z,65.80
2022-12-01T20:54:51.185Z,62.63
2022-12-01T20:57:38.611Z,65.13
2022-12-01T21:00:26.042Z,65.40
2022-12-01T21:03:13.979Z,58.40
2022-12-01T21:06:00.937Z,65.03
2022-12-01T21:08:49.803Z,61.73
2022-12-01T21:12:05.501Z,65.97
2022-12-01T21:15:12.067Z,62.77
2022-12-01T21:18:03.775Z,72.03
2022-12-01T21:21:01.376Z,80.60
2022-12-01T21:24:13.867Z,78.33
2022-12-01T21:27:08.432Z,75.43
2022-12-01T21:29:55.663Z,61.63
2022-12-01T21:32:44.292Z,67.17
2022-12-01T21:35:31.539Z,75.53
2022-12-01T21:38:21.955Z,72.93
2022-12-01T21:41:27.813Z,81.20
2022-12-01T21:44:22.887Z,71.77
2022-12-01T21:47:30.184Z,70.83
2022-12-01T21:50:24.862Z,76.13
2022-12-01T21:53:18.202Z,72.40
2022-12-01T21:56:05.499Z,69.30
2022-12-01T21:58:55.125Z,73.37
2022-12-01T22:01:42.161Z,76.27
2022-12-01T22:04:31.477Z,70.73
2022-12-01T22:07:18.534Z,63.57
2022-12-01T22:10:50.131Z,66.73
2022-12-01T22:13:48.065Z,63.60
2022-12-01T22:17:00.776Z,67.23
2022-12-01T22:20:00.736Z,58.77
2022-12-01T22:22:47.788Z,58.40
2022-12-01T22:25:34.954Z,60.80
2022-12-01T22:28:24.039Z,55.93
2022-12-01T22:31:19.093Z,56.97
2022-12-01T22:34:13.072Z,58.93
2022-12-01T22:37:02.120Z,65.03
2022-12-01T22:39:53.399Z,56.93
2022-12-01T22:42:40.928Z,67.60
2022-12-01T22:45:27.943Z,57.73
2022-12-01T22:48:33.213Z,62.73
2022-12-01T22:51:31.005Z,60.20
2022-12-01T22:54:17.879Z,57.27
2022-12-01T22:57:24.614Z,67.80
2022-12-01T23:00:16.783Z,61.97
2022-12-01T23:03:08.338Z,57.63
2022-12-01T23:05:57.219Z,62.90
2022-12-01T23:08:44.798Z,58.67
2022-12-01T23:11:31.758Z,58.87
2022-12-01T23:14:23.400Z,59.60
2022-12-01T23:17:27.026Z,63.27
2022-12-01T23:20:19.825Z,66.17
2022-12-01T23:23:15.276Z,61.07
2022-12-01T23:26:06.071Z,62.60
2022-12-01T23:28:55.111Z,58.87
2022-12-01T23:31:49.933Z,58.83
2022-12-01T23:34:36.927Z,64.27
2022-12-01T23:37:41.410Z,51.20
2022-12-01T23:40:34.878Z,57.97
2022-12-01T23:43:25.472Z,50.73
2022-12-01T23:46:16.356Z,60.43
2022-12-01T23:49:07.277Z,55.37
2022-12-01T23:51:56.034Z,53.23
2022-12-01T23:54:43.420Z,52.13
2022-12-01T23:57:31.356Z,56.50
